^^
Station Historical Data
Daily Summary for February 24, 2017 Units:  English    Metric   Both
« Previous Day
Next Day »
Daily Weekly Monthly Yearly Custom
  High: Low: Average:
Temperature: 74.1 °F 47.5 °F 61.3 °F
Dew Point: 57.3 °F 45.1 °F 51.9 °F
Humidity: 93 % 47 % 74 %
Wind Speed: 12.6 mph 0.0 mph 4.3 mph
Wind Gust: 19.6 mph - -
Wind:- - South
Pressure: 29.93 in 29.80 in -
Precipitation: 0.00 in    
Historical Graphs
 
 
Tabular Data for February 24, 2017
Time Temperature Dew Point Pressure Wind Wind Speed Wind Gust Humidity Rainfall Rate (Hourly) solar Conditions
00:04 54.8 °F 50.1 °F 29.90 in Calm     84 % 0.00 in 0.0 W/m2 CLR
00:09 54.4 °F 50.0 °F 29.90 in Calm     85 % 0.00 in 0.0 W/m2 CLR
00:14 54.0 °F 49.6 °F 29.90 in Calm     85 % 0.00 in 0.0 W/m2 CLR
00:19 53.8 °F 49.4 °F 29.89 in Calm     85 % 0.00 in 0.0 W/m2 CLR
00:24 53.5 °F 49.4 °F 29.89 in Calm     86 % 0.00 in 0.0 W/m2 CLR
00:29 53.5 °F 49.4 °F 29.89 in Calm     86 % 0.00 in 0.0 W/m2 CLR
00:34 53.4 °F 49.3 °F 29.89 in Calm     86 % 0.00 in 0.0 W/m2 CLR
00:39 53.4 °F 49.6 °F 29.89 in Calm     87 % 0.00 in 0.0 W/m2 CLR
00:44 52.7 °F 48.9 °F 29.89 in Calm     87 % 0.00 in 0.0 W/m2 CLR
00:49 52.9 °F 49.1 °F 29.89 in Calm     87 % 0.00 in 0.0 W/m2 CLR
00:54 52.4 °F 48.6 °F 29.89 in Calm     87 % 0.00 in 0.0 W/m2 CLR
00:59 52.5 °F 49.0 °F 29.89 in Calm     88 % 0.00 in 0.0 W/m2 CLR
01:04 52.2 °F 48.4 °F 29.89 in Calm     87 % 0.00 in 0.0 W/m2 CLR
01:09 51.9 °F 48.5 °F 29.89 in Calm     88 % 0.00 in 0.0 W/m2 CLR
01:14 51.8 °F 48.4 °F 29.89 in Calm     88 % 0.00 in 0.0 W/m2 CLR
01:19 51.8 °F 48.4 °F 29.89 in Calm     88 % 0.00 in 0.0 W/m2 CLR
01:24 51.9 °F 48.5 °F 29.89 in Calm     88 % 0.00 in 0.0 W/m2 CLR
01:29 51.9 °F 48.5 °F 29.89 in Calm     88 % 0.00 in 0.0 W/m2 CLR
01:34 52.3 °F 49.2 °F 29.89 in Calm     89 % 0.00 in 0.0 W/m2 CLR
01:39 51.6 °F 48.2 °F 29.89 in Calm     88 % 0.00 in 0.0 W/m2 CLR
01:44 51.2 °F 47.8 °F 29.89 in Calm     88 % 0.00 in 0.0 W/m2 CLR
01:49 51.3 °F 48.2 °F 29.89 in Calm     89 % 0.00 in 0.0 W/m2 CLR
01:54 50.8 °F 47.7 °F 29.89 in Calm     89 % 0.00 in 0.0 W/m2 CLR
01:59 51.1 °F 48.3 °F 29.89 in Calm     90 % 0.00 in 0.0 W/m2 CLR
02:04 50.9 °F 47.8 °F 29.89 in Calm     89 % 0.00 in 0.0 W/m2 CLR
02:09 50.8 °F 48.0 °F 29.89 in Calm     90 % 0.00 in 0.0 W/m2 CLR
02:14 50.6 °F 47.8 °F 29.89 in Calm     90 % 0.00 in 0.0 W/m2 CLR
02:19 50.5 °F 47.7 °F 29.89 in Calm     90 % 0.00 in 0.0 W/m2 CLR
02:24 50.6 °F 47.8 °F 29.89 in Calm     90 % 0.00 in 0.0 W/m2 CLR
02:29 50.3 °F 47.5 °F 29.89 in Calm     90 % 0.00 in 0.0 W/m2 CLR
02:30 50.3 °F 47.5 °F 29.89 in Calm     90 % 0.00 in 0.0 W/m2 CLR
02:35 50.3 °F 47.5 °F 29.89 in Calm     90 % 0.00 in 0.0 W/m2 CLR
02:40 50.3 °F 47.8 °F 29.89 in Calm     91 % 0.00 in 0.0 W/m2 CLR
02:45 50.0 °F 47.2 °F 29.89 in Calm     90 % 0.00 in 0.0 W/m2 CLR
02:50 49.7 °F 46.9 °F 29.89 in Calm     90 % 0.00 in 0.0 W/m2 CLR
02:55 49.7 °F 47.2 °F 29.89 in Calm     91 % 0.00 in 0.0 W/m2 CLR
03:00 49.9 °F 47.4 °F 29.90 in Calm     91 % 0.00 in 0.0 W/m2 CLR
03:05 50.2 °F 47.7 °F 29.90 in Calm     91 % 0.00 in 0.0 W/m2 CLR
03:10 49.8 °F 47.0 °F 29.90 in Calm     90 % 0.00 in 0.0 W/m2 CLR
03:15 49.7 °F 47.2 °F 29.90 in Calm     91 % 0.00 in 0.0 W/m2 CLR
03:20 49.3 °F 46.8 °F 29.90 in Calm     91 % 0.00 in 0.0 W/m2 CLR
03:25 49.3 °F 46.8 °F 29.90 in Calm     91 % 0.00 in 0.0 W/m2 CLR
03:30 49.7 °F 47.2 °F 29.90 in Calm     91 % 0.00 in 0.0 W/m2 CLR
03:35 49.5 °F 47.0 °F 29.90 in Calm     91 % 0.00 in 0.0 W/m2 CLR
03:40 50.1 °F 47.9 °F 29.90 in Calm     92 % 0.00 in 0.0 W/m2 CLR
03:46 49.9 °F 47.1 °F 29.90 in Calm     90 % 0.00 in 0.0 W/m2 CLR
03:51 49.2 °F 46.7 °F 29.90 in Calm     91 % 0.00 in 0.0 W/m2 CLR
03:56 49.5 °F 47.0 °F 29.90 in Calm     91 % 0.00 in 0.0 W/m2 CLR
04:01 49.3 °F 46.8 °F 29.90 in Calm     91 % 0.00 in 0.0 W/m2 CLR
04:06 49.5 °F 47.0 °F 29.90 in Calm     91 % 0.00 in 0.0 W/m2 CLR
04:11 49.5 °F 47.0 °F 29.90 in Calm     91 % 0.00 in 0.0 W/m2 CLR
04:16 49.8 °F 47.3 °F 29.90 in Calm     91 % 0.00 in 0.0 W/m2 CLR
04:21 49.9 °F 47.4 °F 29.90 in Calm     91 % 0.00 in 0.0 W/m2 CLR
04:26 50.9 °F 48.4 °F 29.90 in Calm     91 % 0.00 in 0.0 W/m2 CLR
04:31 50.6 °F 48.1 °F 29.90 in Calm     91 % 0.00 in 0.0 W/m2 CLR
04:36 50.6 °F 48.1 °F 29.90 in Calm     91 % 0.00 in 0.0 W/m2 CLR
04:41 50.1 °F 47.3 °F 29.90 in Calm     90 % 0.00 in 0.0 W/m2 CLR
04:46 50.0 °F 47.5 °F 29.90 in Calm     91 % 0.00 in 0.0 W/m2 CLR
04:51 49.6 °F 47.1 °F 29.90 in Calm     91 % 0.00 in 0.0 W/m2 CLR
04:56 49.4 °F 46.9 °F 29.90 in Calm     91 % 0.00 in 0.0 W/m2 CLR
05:01 49.8 °F 47.3 °F 29.90 in Calm     91 % 0.00 in 0.0 W/m2 CLR
05:06 49.5 °F 47.0 °F 29.90 in Calm     91 % 0.00 in 0.0 W/m2 CLR
05:11 50.8 °F 48.6 °F 29.90 in Calm     92 % 0.00 in 0.0 W/m2 CLR
05:16 51.3 °F 48.8 °F 29.90 in Calm     91 % 0.00 in 0.0 W/m2 CLR
05:18 51.3 °F 48.8 °F 29.90 in Calm     91 % 0.00 in 0.0 W/m2 CLR
05:23 50.7 °F 47.9 °F 29.90 in Calm     90 % 0.00 in 0.0 W/m2 CLR
05:28 50.1 °F 47.3 °F 29.90 in Calm     90 % 0.00 in 0.0 W/m2 CLR
05:33 49.0 °F 46.2 °F 29.90 in Calm     90 % 0.00 in 0.0 W/m2 CLR
05:38 49.8 °F 47.3 °F 29.90 in Calm     91 % 0.00 in 0.0 W/m2 CLR
05:43 49.4 °F 46.9 °F 29.90 in Calm     91 % 0.00 in 0.0 W/m2 CLR
05:48 49.2 °F 46.7 °F 29.90 in Calm     91 % 0.00 in 0.0 W/m2 CLR
05:53 48.7 °F 46.2 °F 29.90 in Calm     91 % 0.00 in 0.0 W/m2 CLR
05:58 48.8 °F 46.3 °F 29.90 in Calm     91 % 0.00 in 0.0 W/m2 CLR
06:03 48.5 °F 46.0 °F 29.90 in Calm     91 % 0.00 in 0.0 W/m2 CLR
06:08 48.2 °F 45.7 °F 29.90 in Calm     91 % 0.00 in 0.0 W/m2 CLR
06:13 48.4 °F 46.2 °F 29.91 in Calm     92 % 0.00 in 0.0 W/m2 CLR
06:18 48.5 °F 46.3 °F 29.91 in Calm     92 % 0.00 in 0.0 W/m2 CLR
06:23 47.6 °F 45.1 °F 29.91 in Calm     91 % 0.00 in 0.0 W/m2 CLR
06:28 47.9 °F 45.7 °F 29.90 in Calm     92 % 0.00 in 0.0 W/m2 CLR
06:33 47.9 °F 45.7 °F 29.90 in Calm     92 % 0.00 in 0.0 W/m2 CLR
06:38 48.0 °F 45.8 °F 29.90 in Calm     92 % 0.00 in 0.0 W/m2 CLR
06:44 47.8 °F 45.6 °F 29.90 in Calm     92 % 0.00 in 5.0 W/m2 CLR
06:49 47.8 °F 45.6 °F 29.90 in Calm     92 % 0.00 in 7.0 W/m2 CLR
06:54 47.8 °F 45.6 °F 29.90 in Calm     92 % 0.00 in 11.0 W/m2 CLR
06:59 47.6 °F 45.4 °F 29.91 in Calm     92 % 0.00 in 14.0 W/m2 CLR
07:04 47.7 °F 45.5 °F 29.91 in Calm     92 % 0.00 in 18.0 W/m2 CLR
07:09 47.5 °F 45.3 °F 29.91 in Calm     92 % 0.00 in 23.0 W/m2 CLR
07:14 47.6 °F 45.7 °F 29.91 in Calm     93 % 0.00 in 26.0 W/m2 CLR
07:19 47.7 °F 45.8 °F 29.91 in Calm     93 % 0.00 in 30.0 W/m2 CLR
07:24 47.9 °F 46.0 °F 29.91 in Calm     93 % 0.00 in 35.0 W/m2 CLR
07:29 48.4 °F 46.5 °F 29.92 in Calm     93 % 0.00 in 40.0 W/m2 FEW
07:34 49.0 °F 47.1 °F 29.92 in Calm     93 % 0.00 in 46.0 W/m2 FEW
07:39 49.4 °F 47.5 °F 29.92 in Calm     93 % 0.00 in 42.0 W/m2 SCT
07:44 50.0 °F 47.8 °F 29.92 in Calm     92 % 0.00 in 63.0 W/m2 FEW
07:49 50.6 °F 48.4 °F 29.92 in Calm     92 % 0.00 in 49.0 W/m2 BKN
07:54 51.5 °F 49.3 °F 29.93 in Calm     92 % 0.00 in 102.0 W/m2 CLR
07:59 52.4 °F 49.8 °F 29.93 in Calm     91 % 0.00 in 128.0 W/m2 CLR
08:04 53.5 °F 50.9 °F 29.93 in Calm     91 % 0.00 in 107.0 W/m2 FEW
08:09 54.3 °F 51.1 °F 29.93 in Calm     89 % 0.00 in 120.0 W/m2 FEW
08:14 54.5 °F 51.3 °F 29.93 in Calm     89 % 0.00 in 132.0 W/m2 CLR
08:19 54.9 °F 51.4 °F 29.93 in Calm     88 % 0.00 in 114.0 W/m2 FEW
08:24 55.8 °F 52.0 °F 29.93 in Calm     87 % 0.00 in 190.0 W/m2 CLR
08:29 56.7 °F 52.6 °F 29.93 in Calm     86 % 0.00 in 225.0 W/m2 CLR
08:34 57.3 °F 52.8 °F 29.93 in Calm     85 % 0.00 in 267.0 W/m2 CLR
08:39 57.6 °F 52.8 °F 29.93 in Calm     84 % 0.00 in 297.0 W/m2 CLR
08:44 58.3 °F 53.2 °F 29.93 in Calm     83 % 0.00 in 315.0 W/m2 CLR
08:49 58.6 °F 53.1 °F 29.93 in Calm     82 % 0.00 in 311.0 W/m2 CLR
08:54 59.2 °F 53.4 °F 29.93 in SW 1.5 mph 3.5 mph 81 % 0.00 in 239.0 W/m2 CLR
08:59 59.6 °F 53.8 °F 29.93 in Calm   1.2 mph 81 % 0.00 in 262.0 W/m2 CLR
09:04 60.2 °F 54.0 °F 29.93 in Calm     80 % 0.00 in 346.0 W/m2 CLR
09:09 61.0 °F 54.4 °F 29.93 in SW 4.6 mph 8.1 mph 79 % 0.00 in 360.0 W/m2 CLR
09:14 61.9 °F 54.6 °F 29.93 in SSW 5.5 mph 7.0 mph 77 % 0.00 in 334.0 W/m2 CLR
09:19 62.4 °F 54.7 °F 29.93 in SSW 7.2 mph 9.2 mph 76 % 0.00 in 311.0 W/m2 CLR
09:24 62.9 °F 54.9 °F 29.93 in South 9.2 mph 10.4 mph 75 % 0.00 in 336.0 W/m2 CLR
09:29 63.0 °F 54.6 °F 29.93 in WSW 9.6 mph 11.5 mph 74 % 0.00 in 394.0 W/m2 CLR
09:34 63.4 °F 55.0 °F 29.93 in WSW 5.8 mph 10.4 mph 74 % 0.00 in 462.0 W/m2 CLR
09:39 63.6 °F 54.8 °F 29.92 in SW 7.0 mph 12.0 mph 73 % 0.00 in 510.0 W/m2 CLR
09:44 64.0 °F 54.8 °F 29.92 in SSW 5.4 mph 6.9 mph 72 % 0.00 in 536.0 W/m2 CLR
09:49 64.6 °F 55.0 °F 29.92 in South 4.1 mph 6.9 mph 71 % 0.00 in 582.0 W/m2 CLR
09:54 65.5 °F 55.1 °F 29.92 in South 8.3 mph 11.5 mph 69 % 0.00 in 552.0 W/m2 CLR
09:59 65.8 °F 54.9 °F 29.92 in SSW 8.3 mph 10.4 mph 68 % 0.00 in 490.0 W/m2 CLR
10:05 66.1 °F 55.2 °F 29.92 in SSW 6.6 mph 9.2 mph 68 % 0.00 in 564.0 W/m2 CLR
10:10 66.6 °F 54.9 °F 29.92 in SSW 5.6 mph 9.0 mph 66 % 0.00 in 548.0 W/m2 CLR
10:15 66.8 °F 55.1 °F 29.91 in SSW 6.6 mph 9.2 mph 66 % 0.00 in 552.0 W/m2 CLR
10:20 67.2 °F 55.0 °F 29.91 in WSW 4.8 mph 10.4 mph 65 % 0.00 in 504.0 W/m2 CLR
10:25 67.2 °F 54.6 °F 29.91 in SSW 9.9 mph 16.1 mph 64 % 0.00 in 550.0 W/m2 CLR
10:30 67.6 °F 55.0 °F 29.91 in SSW 7.4 mph 11.5 mph 64 % 0.00 in 578.0 W/m2 CLR
10:35 67.7 °F 54.6 °F 29.91 in SW 8.7 mph 13.8 mph 63 % 0.00 in 589.0 W/m2 CLR
10:40 67.8 °F 54.7 °F 29.91 in WSW 7.2 mph 13.8 mph 63 % 0.00 in 550.0 W/m2 CLR
10:45 68.1 °F 54.6 °F 29.91 in SW 7.5 mph 16.0 mph 62 % 0.00 in 473.0 W/m2 CLR
10:50 68.6 °F 54.6 °F 29.91 in WSW 6.6 mph 11.5 mph 61 % 0.00 in 380.0 W/m2 FEW
10:55 68.8 °F 54.8 °F 29.90 in SSW 6.4 mph 11.0 mph 61 % 0.00 in 355.0 W/m2 FEW
11:00 69.2 °F 54.7 °F 29.90 in SW 10.4 mph 16.1 mph 60 % 0.00 in 628.0 W/m2 CLR
11:05 69.3 °F 54.8 °F 29.90 in SSW 9.1 mph 12.0 mph 60 % 0.00 in 636.0 W/m2 CLR
11:10 69.9 °F 54.9 °F 29.90 in WSW 7.7 mph 17.3 mph 59 % 0.00 in 640.0 W/m2 CLR
11:15 69.7 °F 54.3 °F 29.90 in SSW 12.0 mph 16.1 mph 58 % 0.00 in 647.0 W/m2 CLR
11:20 70.0 °F 54.5 °F 29.90 in SSW 8.9 mph 13.8 mph 58 % 0.00 in 650.0 W/m2 CLR
11:25 70.3 °F 54.3 °F 29.89 in WSW 11.8 mph 17.3 mph 57 % 0.00 in 657.0 W/m2 CLR
11:30 70.6 °F 54.6 °F 29.89 in SSW 9.7 mph 15.0 mph 57 % 0.00 in 659.0 W/m2 CLR
11:35 70.8 °F 54.3 °F 29.89 in SSW 4.8 mph 11.5 mph 56 % 0.00 in 666.0 W/m2 CLR
11:40 71.1 °F 54.6 °F 29.88 in SW 11.2 mph 15.0 mph 56 % 0.00 in 673.0 W/m2 CLR
11:45 71.2 °F 54.7 °F 29.88 in SSW 6.9 mph 10.4 mph 56 % 0.00 in 673.0 W/m2 CLR
11:51 71.8 °F 54.8 °F 29.88 in WSW 7.8 mph 11.5 mph 55 % 0.00 in 675.0 W/m2 CLR
11:56 71.9 °F 53.8 °F 29.88 in SSW 11.8 mph 17.3 mph 53 % 0.00 in 698.0 W/m2 CLR
12:01 71.7 °F 54.2 °F 29.88 in SW 10.1 mph 12.7 mph 54 % 0.00 in 707.0 W/m2 CLR
12:06 72.0 °F 53.9 °F 29.87 in SW 11.7 mph 16.1 mph 53 % 0.00 in 677.0 W/m2 CLR
12:11 71.9 °F 53.8 °F 29.87 in SSW 10.9 mph 15.0 mph 53 % 0.00 in 686.0 W/m2 CLR
12:16 72.1 °F 54.0 °F 29.87 in WSW 10.2 mph 15.0 mph 53 % 0.00 in 680.0 W/m2 CLR
12:21 72.3 °F 54.2 °F 29.87 in SSW 10.1 mph 13.8 mph 53 % 0.00 in 682.0 W/m2 CLR
12:26 72.4 °F 54.3 °F 29.86 in SW 7.0 mph 10.4 mph 53 % 0.00 in 712.0 W/m2 CLR
12:31 73.0 °F 54.9 °F 29.86 in South 4.9 mph 8.0 mph 53 % 0.00 in 696.0 W/m2 CLR
12:36 72.8 °F 54.1 °F 29.86 in SSW 11.8 mph 14.0 mph 52 % 0.00 in 689.0 W/m2 CLR
12:41 72.8 °F 54.1 °F 29.85 in SSE 5.6 mph 16.1 mph 52 % 0.00 in 687.0 W/m2 CLR
12:46 72.9 °F 54.2 °F 29.85 in SW 7.9 mph 11.5 mph 52 % 0.00 in 689.0 W/m2 CLR
12:51 72.6 °F 54.5 °F 29.85 in South 8.7 mph 12.0 mph 53 % 0.00 in 666.0 W/m2 CLR
12:56 72.4 °F 54.3 °F 29.85 in SSW 8.4 mph 12.7 mph 53 % 0.00 in 745.0 W/m2 CLR
13:01 72.4 °F 54.3 °F 29.85 in SSW 11.8 mph 17.3 mph 53 % 0.00 in 186.0 W/m2 FEW
13:06 72.9 °F 53.7 °F 29.84 in South 11.6 mph 16.1 mph 51 % 0.00 in 211.0 W/m2 FEW
13:11 72.7 °F 54.1 °F 29.84 in SW 9.2 mph 18.0 mph 52 % 0.00 in 211.0 W/m2 BKN
13:16 72.6 °F 53.4 °F 29.84 in SSW 9.7 mph 13.8 mph 51 % 0.00 in 158.0 W/m2 BKN
13:21 73.0 °F 54.3 °F 29.84 in SW 11.4 mph 16.1 mph 52 % 0.00 in 710.0 W/m2 CLR
13:26 73.0 °F 53.8 °F 29.84 in South 10.6 mph 15.0 mph 51 % 0.00 in 573.0 W/m2 CLR
13:31 73.0 °F 53.8 °F 29.83 in SW 6.5 mph 12.7 mph 51 % 0.00 in 334.0 W/m2 FEW
13:36 72.8 °F 54.1 °F 29.83 in SW 8.3 mph 11.5 mph 52 % 0.00 in 343.0 W/m2 SCT
13:41 73.1 °F 53.9 °F 29.83 in SSE 5.6 mph 11.5 mph 51 % 0.00 in 485.0 W/m2 FEW
13:46 73.1 °F 53.4 °F 29.83 in SSE 11.7 mph 15.0 mph 50 % 0.00 in 485.0 W/m2 CLR
13:51 73.3 °F 53.5 °F 29.82 in SSW 9.1 mph 12.7 mph 50 % 0.00 in 232.0 W/m2 FEW
13:56 72.9 °F 53.7 °F 29.82 in SSW 7.8 mph 13.8 mph 51 % 0.00 in 267.0 W/m2 SCT
14:01 72.8 °F 53.6 °F 29.82 in SSE 9.8 mph 13.8 mph 51 % 0.00 in 647.0 W/m2 BKN
14:06 72.8 °F 53.6 °F 29.82 in South 7.9 mph 11.5 mph 51 % 0.00 in 155.0 W/m2 BKN
14:11 73.3 °F 53.5 °F 29.82 in South 6.1 mph 11.5 mph 50 % 0.00 in 708.0 W/m2 CLR
14:16 73.5 °F 53.2 °F 29.82 in South 8.2 mph 10.4 mph 49 % 0.00 in 155.0 W/m2 BKN
14:21 73.3 °F 53.5 °F 29.83 in SSW 10.9 mph 13.8 mph 50 % 0.00 in 383.0 W/m2 SCT
14:26 73.1 °F 53.4 °F 29.83 in SSW 7.6 mph 11.5 mph 50 % 0.00 in 388.0 W/m2 CLR
14:31 73.4 °F 53.1 °F 29.82 in SSW 7.3 mph 13.0 mph 49 % 0.00 in 570.0 W/m2 CLR
14:36 73.8 °F 52.3 °F 29.83 in South 12.2 mph 16.1 mph 47 % 0.00 in 573.0 W/m2 CLR
14:41 73.9 °F 52.4 °F 29.83 in SSW 12.6 mph 19.6 mph 47 % 0.00 in 580.0 W/m2 CLR
14:46 74.1 °F 52.6 °F 29.83 in SW 10.2 mph 16.1 mph 47 % 0.00 in 545.0 W/m2 CLR
14:51 74.1 °F 52.6 °F 29.82 in South 7.8 mph 9.2 mph 47 % 0.00 in 522.0 W/m2 CLR
14:56 74.0 °F 53.1 °F 29.82 in South 8.3 mph 15.0 mph 48 % 0.00 in 534.0 W/m2 CLR
15:01 73.5 °F 53.2 °F 29.82 in SSE 10.2 mph 13.8 mph 49 % 0.00 in 153.0 W/m2 CLR
15:06 73.1 °F 53.4 °F 29.83 in South 12.2 mph 16.1 mph 50 % 0.00 in 156.0 W/m2 FEW
15:11 72.6 °F 53.4 °F 29.82 in South 8.9 mph 15.0 mph 51 % 0.00 in 207.0 W/m2 SCT
15:16 72.8 °F 53.1 °F 29.82 in South 7.0 mph 12.7 mph 50 % 0.00 in 362.0 W/m2 CLR
15:21 73.3 °F 53.5 °F 29.82 in SSW 7.2 mph 13.8 mph 50 % 0.00 in 533.0 W/m2 CLR
15:26 73.8 °F 52.9 °F 29.82 in South 9.8 mph 14.0 mph 48 % 0.00 in 464.0 W/m2 CLR
15:31 74.0 °F 53.1 °F 29.82 in SW 10.5 mph 18.4 mph 48 % 0.00 in 448.0 W/m2 CLR
15:36 73.9 °F 53.0 °F 29.82 in SSW 8.3 mph 13.8 mph 48 % 0.00 in 429.0 W/m2 CLR
15:41 73.6 °F 52.7 °F 29.82 in South 10.2 mph 12.7 mph 48 % 0.00 in 404.0 W/m2 CLR
15:46 73.2 °F 52.9 °F 29.82 in South 10.1 mph 13.8 mph 49 % 0.00 in 399.0 W/m2 CLR
15:51 73.3 °F 53.0 °F 29.82 in South 8.4 mph 11.5 mph 49 % 0.00 in 373.0 W/m2 CLR
15:57 73.3 °F 52.4 °F 29.81 in SSE 12.3 mph 16.1 mph 48 % 0.00 in 294.0 W/m2 CLR
16:02 72.6 °F 52.3 °F 29.81 in South 11.7 mph 15.0 mph 49 % 0.00 in 272.0 W/m2 CLR
16:07 72.5 °F 52.8 °F 29.81 in South 7.1 mph 9.2 mph 50 % 0.00 in 253.0 W/m2 CLR
16:12 72.5 °F 52.8 °F 29.81 in SSW 10.5 mph 14.0 mph 50 % 0.00 in 229.0 W/m2 CLR
16:17 72.2 °F 52.5 °F 29.81 in SSW 9.8 mph 16.1 mph 50 % 0.00 in 211.0 W/m2 CLR
16:22 72.2 °F 52.5 °F 29.81 in SSW 7.7 mph 10.4 mph 50 % 0.00 in 193.0 W/m2 CLR
16:27 72.1 °F 53.0 °F 29.81 in South 8.0 mph 11.5 mph 51 % 0.00 in 172.0 W/m2 CLR
16:32 72.2 °F 53.6 °F 29.81 in South 5.7 mph 8.1 mph 52 % 0.00 in 153.0 W/m2 CLR
16:37 72.0 °F 53.9 °F 29.81 in SSE 6.8 mph 10.4 mph 53 % 0.00 in 134.0 W/m2 CLR
16:42 71.7 °F 53.7 °F 29.81 in South 7.6 mph 15.0 mph 53 % 0.00 in 114.0 W/m2 CLR
16:47 71.4 °F 53.4 °F 29.81 in South 11.6 mph 15.0 mph 53 % 0.00 in 100.0 W/m2 FEW
16:52 71.3 °F 53.3 °F 29.81 in SSE 10.1 mph 13.8 mph 53 % 0.00 in 84.0 W/m2 FEW
16:57 71.0 °F 53.0 °F 29.81 in South 8.8 mph 16.1 mph 53 % 0.00 in 70.0 W/m2 FEW
17:02 70.9 °F 53.4 °F 29.81 in SSE 7.0 mph 12.7 mph 54 % 0.00 in 47.0 W/m2 SCT
17:07 70.6 °F 53.1 °F 29.81 in SSE 7.2 mph 11.5 mph 54 % 0.00 in 37.0 W/m2 SCT
17:12 70.4 °F 53.0 °F 29.81 in SSE 8.8 mph 11.5 mph 54 % 0.00 in 28.0 W/m2 BKN
17:17 70.1 °F 52.7 °F 29.81 in South 8.1 mph 11.5 mph 54 % 0.00 in 23.0 W/m2 BKN
17:22 69.9 °F 52.5 °F 29.81 in South 8.9 mph 11.5 mph 54 % 0.00 in 19.0 W/m2 BKN
17:27 69.7 °F 52.8 °F 29.81 in South 9.5 mph 13.8 mph 55 % 0.00 in 18.0 W/m2 SCT
17:32 69.5 °F 52.6 °F 29.80 in South 9.1 mph 11.5 mph 55 % 0.00 in 11.0 W/m2 SCT
17:33 69.5 °F 52.6 °F 29.80 in South 10.3 mph 12.7 mph 55 % 0.00 in 11.0 W/m2 SCT
17:38 69.2 °F 52.8 °F 29.81 in South 5.7 mph 9.2 mph 56 % 0.00 in 7.0 W/m2 FEW
17:43 68.8 °F 53.4 °F 29.81 in South 7.7 mph 11.5 mph 58 % 0.00 in 5.0 W/m2 CLR
17:48 68.6 °F 53.7 °F 29.81 in South 7.2 mph 11.5 mph 59 % 0.00 in 0.0 W/m2 CLR
17:53 68.3 °F 53.9 °F 29.81 in South 7.6 mph 10.4 mph 60 % 0.00 in 0.0 W/m2 CLR
17:58 68.0 °F 53.6 °F 29.81 in South 4.8 mph 10.0 mph 60 % 0.00 in 0.0 W/m2 CLR
18:03 67.8 °F 53.4 °F 29.81 in South 6.3 mph 8.1 mph 60 % 0.00 in 0.0 W/m2 CLR
18:08 67.6 °F 53.7 °F 29.81 in SSE 7.0 mph 10.4 mph 61 % 0.00 in 0.0 W/m2 CLR
18:13 67.4 °F 53.5 °F 29.81 in South 4.4 mph 6.9 mph 61 % 0.00 in 0.0 W/m2 CLR
18:18 67.2 °F 53.3 °F 29.81 in South 7.0 mph 10.4 mph 61 % 0.00 in 0.0 W/m2 CLR
18:23 67.1 °F 53.6 °F 29.81 in South 7.7 mph 10.4 mph 62 % 0.00 in 0.0 W/m2 CLR
18:28 66.9 °F 53.5 °F 29.81 in South 4.9 mph 7.0 mph 62 % 0.00 in 0.0 W/m2 CLR
18:33 66.7 °F 53.3 °F 29.81 in South 4.5 mph 10.4 mph 62 % 0.00 in 0.0 W/m2 CLR
18:38 66.5 °F 53.5 °F 29.81 in SSW 4.8 mph 4.8 mph 63 % 0.00 in 0.0 W/m2 CLR
18:43 66.4 °F 53.4 °F 29.82 in SSW 4.5 mph 6.9 mph 63 % 0.00 in 0.0 W/m2 CLR
18:48 66.3 °F 53.3 °F 29.82 in SSW 4.4 mph 6.9 mph 63 % 0.00 in 0.0 W/m2 CLR
18:53 66.2 °F 53.7 °F 29.82 in South 7.6 mph 9.2 mph 64 % 0.00 in 0.0 W/m2 CLR
18:58 66.1 °F 53.6 °F 29.82 in South 5.5 mph 6.9 mph 64 % 0.00 in 0.0 W/m2 CLR
19:04 65.9 °F 53.4 °F 29.82 in South 3.7 mph 4.6 mph 64 % 0.00 in 0.0 W/m2 CLR
19:09 65.6 °F 53.5 °F 29.82 in South 7.3 mph 9.2 mph 65 % 0.00 in 0.0 W/m2 CLR
19:14 65.5 °F 53.8 °F 29.82 in South 5.6 mph 6.9 mph 66 % 0.00 in 0.0 W/m2 CLR
19:19 65.3 °F 53.6 °F 29.82 in SSE 4.6 mph 8.1 mph 66 % 0.00 in 0.0 W/m2 CLR
19:24 65.2 °F 54.0 °F 29.82 in South 6.6 mph 10.4 mph 67 % 0.00 in 0.0 W/m2 CLR
19:29 65.0 °F 54.2 °F 29.81 in SSE 5.6 mph 9.2 mph 68 % 0.00 in 0.0 W/m2 CLR
19:34 64.9 °F 54.5 °F 29.81 in SSW 5.2 mph 9.2 mph 69 % 0.00 in 0.0 W/m2 CLR
19:39 64.7 °F 54.3 °F 29.81 in South 7.3 mph 11.5 mph 69 % 0.00 in 0.0 W/m2 CLR
19:44 64.5 °F 54.5 °F 29.81 in South 5.5 mph 8.1 mph 70 % 0.00 in 0.0 W/m2 CLR
19:49 64.3 °F 54.3 °F 29.82 in South 4.0 mph 9.2 mph 70 % 0.00 in 0.0 W/m2 CLR
19:54 64.1 °F 54.5 °F 29.82 in South 2.3 mph 4.0 mph 71 % 0.00 in 0.0 W/m2 CLR
19:59 64.0 °F 54.8 °F 29.82 in South 3.9 mph 8.1 mph 72 % 0.00 in 0.0 W/m2 CLR
20:04 63.8 °F 54.6 °F 29.81 in SSE 2.9 mph 5.8 mph 72 % 0.00 in 0.0 W/m2 CLR
20:09 63.6 °F 54.8 °F 29.81 in South 1.6 mph 4.6 mph 73 % 0.00 in 0.0 W/m2 CLR
20:14 63.4 °F 54.6 °F 29.81 in South 3.1 mph 5.8 mph 73 % 0.00 in 0.0 W/m2 CLR
20:19 63.3 °F 54.9 °F 29.82 in South 4.5 mph 8.1 mph 74 % 0.00 in 0.0 W/m2 CLR
20:24 63.1 °F 54.7 °F 29.82 in South 3.3 mph 8.1 mph 74 % 0.00 in 0.0 W/m2 CLR
20:29 62.8 °F 54.8 °F 29.82 in South 1.1 mph 4.6 mph 75 % 0.00 in 0.0 W/m2 CLR
20:34 62.5 °F 54.8 °F 29.82 in South 1.4 mph 3.5 mph 76 % 0.00 in 0.0 W/m2 CLR
20:39 62.4 °F 54.7 °F 29.82 in SSE 3.6 mph 4.6 mph 76 % 0.00 in 0.0 W/m2 CLR
20:44 62.4 °F 55.1 °F 29.82 in South 3.2 mph 8.0 mph 77 % 0.00 in 0.0 W/m2 CLR
20:49 62.2 °F 54.9 °F 29.82 in South 4.5 mph 6.0 mph 77 % 0.00 in 0.0 W/m2 CLR
20:54 62.0 °F 54.7 °F 29.82 in SSE 0.9 mph 3.5 mph 77 % 0.00 in 0.0 W/m2 CLR
20:59 61.9 °F 55.0 °F 29.82 in SSW 4.0 mph 5.8 mph 78 % 0.00 in 0.0 W/m2 CLR
21:04 61.9 °F 55.0 °F 29.82 in South 6.1 mph 11.5 mph 78 % 0.00 in 0.0 W/m2 CLR
21:09 61.7 °F 55.1 °F 29.82 in South 5.7 mph 7.0 mph 79 % 0.00 in 0.0 W/m2 CLR
21:14 61.6 °F 55.0 °F 29.82 in South 7.1 mph 7.1 mph 79 % 0.00 in 0.0 W/m2 CLR
21:19 61.4 °F 54.8 °F 29.82 in South 2.7 mph 6.9 mph 79 % 0.00 in 0.0 W/m2 CLR
21:24 61.2 °F 55.0 °F 29.82 in South 5.8 mph 8.1 mph 80 % 0.00 in 0.0 W/m2 CLR
21:29 61.1 °F 54.9 °F 29.82 in South 4.4 mph 6.9 mph 80 % 0.00 in 0.0 W/m2 CLR
21:34 61.1 °F 55.2 °F 29.82 in South 4.2 mph 6.9 mph 81 % 0.00 in 0.0 W/m2 CLR
21:39 60.9 °F 55.0 °F 29.82 in South 1.0 mph 5.0 mph 81 % 0.00 in 0.0 W/m2 CLR
21:44 60.7 °F 54.8 °F 29.82 in South 0.2 mph 4.6 mph 81 % 0.00 in 0.0 W/m2 CLR
21:49 60.6 °F 55.1 °F 29.82 in SSE 2.0 mph 8.0 mph 82 % 0.00 in 0.0 W/m2 CLR
21:54 60.4 °F 54.9 °F 29.82 in SSE 2.0 mph 6.0 mph 82 % 0.00 in 0.0 W/m2 CLR
21:59 60.4 °F 54.9 °F 29.82 in SSE 2.0 mph 9.2 mph 82 % 0.00 in 0.0 W/m2 CLR
22:04 60.3 °F 54.8 °F 29.82 in SSE 1.0 mph 10.0 mph 82 % 0.00 in 0.0 W/m2 CLR
22:09 60.2 °F 55.0 °F 29.82 in SSE 3.0 mph 9.0 mph 83 % 0.00 in 0.0 W/m2 CLR
22:14 60.2 °F 55.0 °F 29.82 in South 6.0 mph 9.2 mph 83 % 0.00 in 0.0 W/m2 CLR
22:19 60.1 °F 54.9 °F 29.82 in SSE 5.0 mph 10.0 mph 83 % 0.00 in 0.0 W/m2 CLR
22:24 60.1 °F 55.3 °F 29.82 in SSE 3.0 mph 10.0 mph 84 % 0.00 in 0.0 W/m2 CLR
22:29 60.2 °F 55.3 °F 29.82 in SSE 5.0 mph 10.4 mph 84 % 0.00 in 0.0 W/m2 CLR
22:34 60.2 °F 55.3 °F 29.82 in South 3.0 mph 8.0 mph 84 % 0.00 in 0.0 W/m2 CLR
22:39 60.3 °F 55.4 °F 29.82 in South 3.0 mph 8.0 mph 84 % 0.00 in 0.0 W/m2 CLR
22:44 60.3 °F 55.4 °F 29.82 in SSW 2.5 mph 10.4 mph 84 % 0.00 in 0.0 W/m2 CLR
22:49 60.5 °F 55.6 °F 29.82 in South 4.2 mph 8.1 mph 84 % 0.00 in 0.0 W/m2 CLR
22:55 60.6 °F 55.7 °F 29.81 in South 7.4 mph 10.4 mph 84 % 0.00 in 0.0 W/m2 CLR
23:00 60.9 °F 56.0 °F 29.81 in SSE 5.2 mph 9.2 mph 84 % 0.00 in 0.0 W/m2 CLR
23:05 60.9 °F 56.0 °F 29.81 in South 5.3 mph 8.1 mph 84 % 0.00 in 0.0 W/m2 CLR
23:10 61.0 °F 56.1 °F 29.81 in South 5.1 mph 8.1 mph 84 % 0.00 in 0.0 W/m2 CLR
23:15 61.1 °F 56.6 °F 29.81 in South 4.8 mph 5.8 mph 85 % 0.00 in 0.0 W/m2 CLR
23:20 61.2 °F 56.7 °F 29.81 in SSW 4.3 mph 7.0 mph 85 % 0.00 in 0.0 W/m2 CLR
23:25 61.3 °F 56.8 °F 29.81 in South 7.2 mph 15.0 mph 85 % 0.00 in 0.0 W/m2 CLR
23:30 61.4 °F 56.8 °F 29.81 in SSW 6.2 mph 10.4 mph 85 % 0.00 in 0.0 W/m2 CLR
23:35 61.4 °F 56.8 °F 29.81 in South 7.4 mph 9.2 mph 85 % 0.00 in 0.0 W/m2 CLR
23:40 61.4 °F 56.8 °F 29.81 in South 5.4 mph 8.1 mph 85 % 0.00 in 0.0 W/m2 CLR
23:45 61.4 °F 56.8 °F 29.80 in SSE 4.8 mph 10.4 mph 85 % 0.00 in 0.0 W/m2 CLR
23:50 61.4 °F 57.2 °F 29.80 in South 7.5 mph 10.4 mph 86 % 0.00 in 0.0 W/m2 CLR
23:55 61.5 °F 57.3 °F 29.80 in SSW 7.7 mph 13.0 mph 86 % 0.00 in 0.0 W/m2 CLR
Air Products Campus Weather
Compliments of Weather Underground - 3.5 mb